createdAt,value
2019-05-21T17:36:12.031Z,88.62
2019-05-21T17:41:17.759Z,88.13
2019-05-21T17:46:23.266Z,88.13
2019-05-21T17:51:28.779Z,88.41
2019-05-21T17:56:34.170Z,88.42
2019-05-21T18:01:39.809Z,88.27
2019-05-21T18:06:45.789Z,88.52
2019-05-21T18:11:51.203Z,88.12
2019-05-21T18:16:57.015Z,88.34
2019-05-21T18:22:03.940Z,87.94
2019-05-21T18:27:09.588Z,87.94
2019-05-21T18:32:15.443Z,87.19
2019-05-21T18:37:21.052Z,87.19
2019-05-21T18:42:26.565Z,87.21
2019-05-21T18:47:32.072Z,87.21
2019-05-21T18:52:37.844Z,87.64
2019-05-21T18:57:43.512Z,88.06
2019-05-21T19:02:49.417Z,89.25
2019-05-21T19:07:55.009Z,89.22
2019-05-21T19:13:01.650Z,88.07
2019-05-21T19:18:08.549Z,87.44
2019-05-21T19:23:13.940Z,87.44
2019-05-21T19:28:19.847Z,86.98
2019-05-21T19:33:25.467Z,86.98
2019-05-21T19:38:32.104Z,87.52
2019-05-21T19:43:37.501Z,87.65
2019-05-21T19:48:43.038Z,87.60
2019-05-21T19:53:48.428Z,87.60
2019-05-21T19:58:53.771Z,86.67
2019-05-21T20:04:00.833Z,86.82
2019-05-21T20:09:09.031Z,86.99
2019-05-21T20:14:14.606Z,87.08
2019-05-21T20:19:21.290Z,87.90
2019-05-21T20:24:26.632Z,88.16
2019-05-21T20:29:33.101Z,88.22
2019-05-21T20:34:39.509Z,88.19
2019-05-21T20:39:47.813Z,87.37
2019-05-21T20:44:53.399Z,87.90
2019-05-21T20:50:00.067Z,88.22
2019-05-21T20:55:09.219Z,88.94
2019-05-21T21:00:18.105Z,88.72
2019-05-21T21:05:24.453Z,88.72
2019-05-21T21:10:30.343Z,88.57
2019-05-21T21:15:36.616Z,88.62
2019-05-21T21:20:42.497Z,88.19
2019-05-21T21:25:48.268Z,88.58
2019-05-21T21:30:54.970Z,88.81
2019-05-21T21:36:01.278Z,88.26
2019-05-21T21:41:07.963Z,88.48
2019-05-21T21:46:13.910Z,88.30
2019-05-21T21:51:20.498Z,88.30
2019-05-21T21:56:26.325Z,88.78
2019-05-21T22:01:36.400Z,88.44
2019-05-21T22:06:44.254Z,88.51
2019-05-21T22:11:50.534Z,88.79
2019-05-21T22:16:57.228Z,88.91
2019-05-21T22:22:03.210Z,88.60
2019-05-21T22:27:08.902Z,88.60
2019-05-21T22:32:16.641Z,88.08
2019-05-21T22:37:23.174Z,88.26
2019-05-21T22:42:29.309Z,87.72
2019-05-21T22:47:35.014Z,87.72
2019-05-21T22:52:40.608Z,86.68
2019-05-21T22:57:46.237Z,86.18
2019-05-21T23:02:51.754Z,86.70
2019-05-21T23:07:57.142Z,86.88
2019-05-21T23:13:02.880Z,86.88
2019-05-21T23:18:09.122Z,87.95
2019-05-21T23:23:25.912Z,87.94
2019-05-21T23:28:32.588Z,87.94
2019-05-21T23:33:38.645Z,87.88
2019-05-21T23:38:44.013Z,88.25
2019-05-21T23:43:50.262Z,87.75
2019-05-21T23:48:55.780Z,87.75
2019-05-21T23:54:01.244Z,87.97
2019-05-21T23:59:07.510Z,88.35
